createdAt,value
2019-04-20T00:01:25.781Z,7.63
2019-04-20T00:03:51.919Z,8.60
2019-04-20T00:06:21.628Z,10.17
2019-04-20T00:08:58.869Z,8.63
2019-04-20T00:11:27.543Z,8.17
2019-04-20T00:14:03.251Z,7.40
2019-04-20T00:16:25.205Z,10.40
2019-04-20T00:19:03.566Z,9.23
2019-04-20T00:21:42.756Z,10.00
2019-04-20T00:24:20.214Z,11.37
2019-04-20T00:27:22.092Z,8.53
2019-04-20T00:29:41.087Z,8.37
2019-04-20T00:31:59.350Z,9.83
2019-04-20T00:34:26.694Z,9.80
2019-04-20T00:36:49.909Z,8.80
2019-04-20T00:39:20.607Z,6.97
2019-04-20T00:41:56.294Z,9.80
2019-04-20T00:44:28.627Z,9.27
2019-04-20T00:47:04.753Z,9.07
2019-04-20T00:49:43.261Z,10.93
2019-04-20T00:52:24.086Z,9.48
2019-04-20T00:54:28.500Z,9.57
2019-04-20T00:57:10.484Z,9.67
2019-04-20T00:59:43.017Z,8.97
2019-04-20T01:02:16.853Z,8.53
2019-04-20T01:04:56.443Z,8.07
2019-04-20T01:07:17.523Z,7.63
2019-04-20T01:09:54.234Z,8.27
2019-04-20T01:12:28.022Z,8.77
2019-04-20T01:15:00.280Z,8.40
2019-04-20T01:17:28.681Z,8.53
2019-04-20T01:19:58.060Z,11.50
2019-04-20T01:22:30.038Z,9.13
2019-04-20T01:25:07.884Z,8.67
2019-04-20T01:27:42.114Z,7.70
2019-04-20T01:30:11.739Z,9.27
2019-04-20T01:32:52.554Z,8.60
2019-04-20T01:35:27.146Z,9.43
2019-04-20T01:37:58.615Z,7.87
2019-04-20T01:40:11.262Z,8.00
2019-04-20T01:42:40.626Z,8.07
2019-04-20T01:45:14.563Z,9.67
2019-04-20T01:47:46.199Z,8.17
2019-04-20T01:50:20.981Z,8.27
2019-04-20T01:52:56.520Z,9.13
2019-04-20T02:14:03.636Z,8.40
2019-04-20T02:16:37.231Z,10.00
2019-04-20T02:19:13.843Z,12.57
2019-04-20T02:21:46.661Z,9.90
2019-04-20T02:24:06.401Z,8.27
2019-04-20T02:26:34.744Z,7.50
2019-04-20T02:29:30.646Z,7.10
2019-04-20T02:34:47.850Z,10.13
2019-04-20T02:39:55.906Z,10.43
2019-04-20T02:42:25.911Z,9.45
2019-04-20T02:45:00.187Z,8.03
2019-04-20T02:47:30.515Z,10.70
2019-04-20T02:55:05.908Z,9.23
2019-04-20T02:57:34.283Z,13.53
2019-04-20T03:00:05.475Z,14.47
2019-04-20T03:02:18.227Z,9.60
2019-04-20T03:04:42.545Z,11.23
2019-04-20T03:07:20.615Z,9.00
2019-04-20T03:09:56.296Z,9.97
2019-04-20T03:12:33.161Z,11.80
2019-04-20T03:14:52.532Z,7.93
2019-04-20T03:17:33.864Z,9.67
2019-04-20T03:19:57.283Z,9.03
2019-04-20T03:23:02.423Z,13.30
2019-04-20T03:25:07.524Z,11.47
2019-04-20T03:27:37.181Z,10.37
2019-04-20T03:33:23.154Z,8.00
2019-04-20T03:35:52.862Z,9.10
2019-04-20T03:38:11.621Z,10.67
2019-04-20T03:40:46.721Z,8.83
2019-04-20T03:43:02.690Z,8.93
2019-04-20T03:45:41.601Z,10.85
2019-04-20T03:48:16.097Z,11.97
2019-04-20T03:50:53.226Z,9.50
2019-04-20T03:53:29.328Z,10.63
2019-04-20T03:55:56.718Z,10.07
2019-04-20T03:58:45.398Z,9.07
2019-04-20T04:01:22.806Z,7.80
2019-04-20T04:04:07.442Z,11.03
2019-04-20T04:06:24.181Z,9.03
2019-04-20T04:09:02.713Z,8.97
2019-04-20T04:11:35.018Z,10.63
2019-04-20T04:13:50.366Z,11.43
2019-04-20T04:16:21.973Z,10.30
2019-04-20T04:19:01.383Z,12.33
2019-04-20T04:21:40.766Z,9.33
2019-04-20T04:24:11.976Z,11.37
2019-04-20T04:26:39.394Z,9.60
2019-04-20T04:29:22.611Z,8.57
2019-04-20T04:31:59.506Z,10.73
2019-04-20T04:34:20.668Z,10.67
2019-04-20T04:36:53.718Z,12.63
2019-04-20T04:39:27.471Z,9.13
2019-04-20T04:42:05.237Z,10.57
2019-04-20T04:44:21.453Z,10.53
2019-04-20T04:46:43.526Z,10.80
2019-04-20T04:49:18.063Z,12.47
2019-04-20T04:51:46.862Z,10.57
2019-04-20T04:54:16.617Z,9.90
2019-04-20T04:56:39.775Z,12.50
2019-04-20T04:59:10.599Z,13.27
2019-04-20T05:01:40.503Z,11.40
2019-04-20T05:04:37.831Z,10.03
2019-04-20T05:06:59.877Z,13.80
2019-04-20T05:09:15.418Z,12.40
2019-04-20T05:11:44.753Z,12.37
2019-04-20T05:14:21.641Z,12.87
2019-04-20T05:17:01.775Z,11.57
2019-04-20T05:19:38.182Z,13.43
2019-04-20T05:22:27.557Z,15.43
2019-04-20T05:24:53.709Z,12.90
2019-04-20T05:27:40.510Z,12.00
2019-04-20T05:29:48.834Z,17.50
2019-04-20T05:32:29.481Z,12.07
2019-04-20T05:35:12.196Z,14.23
2019-04-20T05:37:57.369Z,12.17
2019-04-20T05:40:17.261Z,13.10
2019-04-20T05:42:50.000Z,13.50
2019-04-20T05:45:17.821Z,13.47
2019-04-20T05:47:49.273Z,12.33
2019-04-20T05:50:23.280Z,11.60
2019-04-20T05:53:01.663Z,13.87
2019-04-20T05:55:29.447Z,14.15
2019-04-20T05:58:01.976Z,12.87
2019-04-20T06:00:33.856Z,22.03
2019-04-20T06:03:00.470Z,114.17
2019-04-20T06:05:36.958Z,68.67
2019-04-20T06:08:09.317Z,37.23
2019-04-20T06:10:38.434Z,27.57
2019-04-20T06:13:15.996Z,26.37
2019-04-20T06:15:53.149Z,22.83
2019-04-20T06:18:35.049Z,12.30
2019-04-20T06:21:19.734Z,39.40
2019-04-20T06:23:59.480Z,16.70
2019-04-20T06:26:43.504Z,14.93
2019-04-20T06:28:50.792Z,15.00
2019-04-20T06:31:30.056Z,14.67
2019-04-20T06:42:13.755Z,15.33
2019-04-20T06:44:34.069Z,13.40
2019-04-20T06:49:35.429Z,13.63
2019-04-20T06:52:34.118Z,13.93
2019-04-20T06:55:03.035Z,14.73
2019-04-20T06:57:40.687Z,14.73
2019-04-20T07:00:14.133Z,13.10
2019-04-20T07:02:44.368Z,17.27
2019-04-20T07:05:11.816Z,13.33
2019-04-20T07:07:47.604Z,14.47
2019-04-20T07:10:19.376Z,16.00
2019-04-20T07:12:43.653Z,13.55
2019-04-20T07:15:16.324Z,15.80
2019-04-20T07:18:09.222Z,12.03
2019-04-20T07:20:19.535Z,11.13
2019-04-20T07:23:11.629Z,14.50
2019-04-20T07:25:34.535Z,11.67
2019-04-20T07:28:07.640Z,11.87
2019-04-20T07:30:35.443Z,11.97
2019-04-20T07:33:08.724Z,10.33
2019-04-20T07:35:35.443Z,9.10
2019-04-20T07:39:09.176Z,10.43
2019-04-20T07:40:35.966Z,8.70
2019-04-20T07:43:09.173Z,10.00
2019-04-20T07:45:36.413Z,9.63
2019-04-20T07:48:16.752Z,9.40
2019-04-20T07:50:37.527Z,13.62
2019-04-20T07:53:15.458Z,11.13
2019-04-20T07:55:50.724Z,9.03
2019-04-20T07:58:12.154Z,10.20
2019-04-20T08:01:04.291Z,12.23
2019-04-20T08:05:59.387Z,7.93
2019-04-20T08:08:35.275Z,10.47
2019-04-20T08:11:07.795Z,8.97
2019-04-20T08:13:49.347Z,8.53
2019-04-20T08:16:14.582Z,7.60
2019-04-20T08:18:45.858Z,8.50
2019-04-20T08:21:17.928Z,6.67
2019-04-20T08:23:47.294Z,6.10
2019-04-20T08:26:05.505Z,7.87
2019-04-20T08:28:39.175Z,7.33
2019-04-20T08:31:21.729Z,6.27
2019-04-20T08:34:31.223Z,7.70
2019-04-20T08:36:45.474Z,6.93
2019-04-20T08:41:53.467Z,7.77
2019-04-20T08:44:42.219Z,7.17
2019-04-20T08:46:59.396Z,6.25
2019-04-20T08:49:26.402Z,7.70
2019-04-20T08:52:01.711Z,8.30
2019-04-20T08:54:23.282Z,6.83
2019-04-20T08:56:43.402Z,8.17
2019-04-20T08:59:06.723Z,6.87
2019-04-20T09:01:38.727Z,6.57
2019-04-20T09:04:14.403Z,6.20
2019-04-20T09:06:52.160Z,9.43
2019-04-20T09:09:38.058Z,5.83
2019-04-20T09:12:03.339Z,9.63
2019-04-20T09:14:21.264Z,6.10
2019-04-20T09:17:01.533Z,6.87
2019-04-20T09:19:36.713Z,7.03
2019-04-20T09:22:24.464Z,5.53
2019-04-20T09:25:16.398Z,8.13
2019-04-20T09:27:26.902Z,5.30
2019-04-20T09:30:05.889Z,9.30
2019-04-20T09:32:36.123Z,5.97
2019-04-20T09:35:15.951Z,6.63
2019-04-20T09:37:59.643Z,7.50
2019-04-20T09:40:35.021Z,5.37
2019-04-20T09:42:54.934Z,8.33
2019-04-20T09:45:32.982Z,6.87
2019-04-20T09:47:58.362Z,5.97
2019-04-20T09:50:50.964Z,5.10
2019-04-20T09:53:14.222Z,5.30
2019-04-20T09:55:46.872Z,6.43
2019-04-20T09:58:15.427Z,5.40
2019-04-20T10:00:59.472Z,5.17
2019-04-20T10:03:16.566Z,6.27
2019-04-20T10:05:47.463Z,5.87
2019-04-20T10:08:17.629Z,7.23
2019-04-20T10:10:51.178Z,6.20
2019-04-20T10:13:21.562Z,5.33
2019-04-20T10:15:51.064Z,6.77
2019-04-20T10:18:27.942Z,9.53
2019-04-20T10:20:57.887Z,5.60
2019-04-20T10:23:27.496Z,7.93
2019-04-20T10:25:58.587Z,5.10
2019-04-20T10:28:28.104Z,4.83
2019-04-20T10:30:58.809Z,10.60
2019-04-20T10:33:28.862Z,7.47
2019-04-20T10:35:59.452Z,5.73
2019-04-20T10:38:34.003Z,8.20
2019-04-20T10:41:11.252Z,5.87
2019-04-20T10:43:33.361Z,4.80
2019-04-20T10:46:02.809Z,4.03
2019-04-20T10:48:40.228Z,5.10
2019-04-20T10:51:03.251Z,6.47
2019-04-20T10:53:32.687Z,5.43
2019-04-20T10:56:03.450Z,6.03
2019-04-20T10:58:33.738Z,4.83
2019-04-20T11:01:03.920Z,3.93
2019-04-20T11:03:40.727Z,8.23
2019-04-20T11:06:11.045Z,4.60
2019-04-20T11:08:40.558Z,4.80
2019-04-20T11:11:17.541Z,4.07
2019-04-20T11:13:41.446Z,4.30
2019-04-20T11:16:10.984Z,5.17
2019-04-20T11:18:40.346Z,4.80
2019-04-20T11:21:11.281Z,5.67
2019-04-20T11:23:44.535Z,4.20
2019-04-20T11:26:14.126Z,7.43
2019-04-20T11:28:44.189Z,4.90
2019-04-20T11:31:14.478Z,5.30
2019-04-20T11:33:45.879Z,4.67
2019-04-20T11:36:17.027Z,5.10
2019-04-20T11:38:47.069Z,4.23
2019-04-20T11:41:23.739Z,4.40
2019-04-20T11:43:47.521Z,4.23
2019-04-20T11:46:23.133Z,5.03
2019-04-20T11:48:52.516Z,5.13
2019-04-20T11:51:21.868Z,5.63
2019-04-20T11:53:52.227Z,4.63
2019-04-20T11:56:26.700Z,7.40
2019-04-20T11:58:53.164Z,4.37
2019-04-20T12:01:34.740Z,5.33
2019-04-20T12:04:09.196Z,4.97
2019-04-20T12:06:30.727Z,5.87
2019-04-20T12:09:01.060Z,5.53
2019-04-20T12:11:41.773Z,4.50
2019-04-20T12:14:02.748Z,4.60
2019-04-20T12:16:32.118Z,5.47
2019-04-20T12:19:04.733Z,7.97
2019-04-20T12:21:34.810Z,4.57
2019-04-20T12:24:04.856Z,4.97
2019-04-20T12:26:38.645Z,7.03
2019-04-20T12:29:08.114Z,4.87
2019-04-20T12:31:37.749Z,4.53
2019-04-20T12:34:08.466Z,5.60
2019-04-20T12:36:39.387Z,4.60
2019-04-20T12:39:10.986Z,6.97
2019-04-20T12:41:48.036Z,6.37
2019-04-20T12:44:12.283Z,5.57
2019-04-20T12:46:41.596Z,3.80
2019-04-20T12:49:11.675Z,8.37
2019-04-20T12:51:48.714Z,7.10
2019-04-20T12:54:12.174Z,8.73
2019-04-20T12:56:42.495Z,3.60
2019-04-20T12:59:11.900Z,5.27
2019-04-20T13:01:41.559Z,4.50
2019-04-20T13:04:12.051Z,3.93
2019-04-20T13:06:42.781Z,6.23
2019-04-20T13:09:12.875Z,4.93
2019-04-20T13:11:52.252Z,6.43
2019-04-20T13:14:46.423Z,6.70
2019-04-20T13:17:16.701Z,4.40
2019-04-20T13:19:47.056Z,4.83
2019-04-20T13:22:17.023Z,7.37
2019-04-20T13:24:47.339Z,8.20
2019-04-20T13:27:16.886Z,5.90
2019-04-20T13:29:49.163Z,5.73
2019-04-20T13:32:18.127Z,5.57
2019-04-20T13:34:47.615Z,7.37
2019-04-20T13:37:18.031Z,4.63
2019-04-20T13:39:49.469Z,4.37
2019-04-20T13:42:24.453Z,5.63
2019-04-20T13:44:50.926Z,6.83
2019-04-20T13:47:25.103Z,4.77
2019-04-20T13:49:54.885Z,4.53
2019-04-20T13:52:24.764Z,6.23
2019-04-20T13:54:55.894Z,4.73
2019-04-20T13:57:42.076Z,4.40
2019-04-20T14:00:22.246Z,4.07
2019-04-20T14:03:03.068Z,4.40
2019-04-20T14:05:35.488Z,5.20
2019-04-20T14:08:09.829Z,4.37
2019-04-20T14:10:39.699Z,4.83
2019-04-20T14:13:14.885Z,4.27
2019-04-20T14:15:40.993Z,12.03
2019-04-20T14:18:11.151Z,4.87
2019-04-20T14:20:47.940Z,5.57
2019-04-20T14:23:14.845Z,4.37
2019-04-20T14:25:45.089Z,4.73
2019-04-20T14:28:15.457Z,4.07
2019-04-20T14:30:45.925Z,4.63
2019-04-20T14:33:16.673Z,4.60
2019-04-20T14:35:47.002Z,4.63
2019-04-20T14:38:17.672Z,4.50
2019-04-20T14:40:48.357Z,4.80
2019-04-20T14:43:19.369Z,10.03
2019-04-20T14:45:50.523Z,4.93
2019-04-20T14:48:25.135Z,4.97
2019-04-20T14:50:55.977Z,4.47
2019-04-20T14:53:25.460Z,3.90
2019-04-20T14:56:01.851Z,4.30
2019-04-20T14:58:41.384Z,5.57
2019-04-20T15:01:28.485Z,5.23
2019-04-20T15:04:04.795Z,4.20
2019-04-20T15:06:29.778Z,4.77
2019-04-20T15:09:21.063Z,4.43
2019-04-20T15:11:50.798Z,4.60
2019-04-20T15:14:20.750Z,4.47
2019-04-20T15:16:50.974Z,5.17
2019-04-20T15:19:23.318Z,7.03
2019-04-20T15:21:57.829Z,6.23
2019-04-20T15:24:27.478Z,5.07
2019-04-20T15:26:56.868Z,5.83
2019-04-20T15:29:26.469Z,6.40
2019-04-20T15:31:56.532Z,7.30
2019-04-20T15:34:26.794Z,4.47
2019-04-20T15:36:56.308Z,4.90
2019-04-20T15:39:25.678Z,6.00
2019-04-20T15:41:55.045Z,5.30
2019-04-20T15:44:25.121Z,4.80
2019-04-20T15:46:55.228Z,7.77
2019-04-20T15:49:26.310Z,4.40
2019-04-20T15:51:57.506Z,4.80
2019-04-20T15:54:27.507Z,5.70
2019-04-20T15:57:02.366Z,4.60
2019-04-20T15:59:32.633Z,5.03
2019-04-20T16:02:05.063Z,4.50
2019-04-20T16:04:49.110Z,4.77
2019-04-20T16:07:19.750Z,5.62
2019-04-20T16:09:50.470Z,5.40
2019-04-20T16:12:20.856Z,5.47
2019-04-20T16:14:51.382Z,5.53
2019-04-20T16:17:25.205Z,5.83
2019-04-20T16:20:00.365Z,6.30
2019-04-20T16:22:25.843Z,9.33
2019-04-20T16:24:56.955Z,5.93
2019-04-20T16:27:31.776Z,5.77
2019-04-20T16:30:02.007Z,7.83
2019-04-20T16:32:32.412Z,5.97
2019-04-20T16:35:02.875Z,5.63
2019-04-20T16:37:32.720Z,5.67
2019-04-20T16:40:04.289Z,6.90
2019-04-20T16:42:34.470Z,7.60
2019-04-20T16:45:07.666Z,8.07
2019-04-20T16:47:37.039Z,7.20
2019-04-20T16:50:08.833Z,5.67
2019-04-20T16:52:39.128Z,7.97
2019-04-20T16:55:11.210Z,6.43
2019-04-20T16:57:39.877Z,6.80
2019-04-20T17:00:11.544Z,7.20
2019-04-20T17:02:40.922Z,9.20
2019-04-20T17:05:11.370Z,6.23
2019-04-20T17:07:45.334Z,6.30
2019-04-20T17:10:17.973Z,5.60
2019-04-20T17:12:48.074Z,7.97
2019-04-20T17:15:19.569Z,8.87
2019-04-20T17:17:57.170Z,6.10
2019-04-20T17:20:27.536Z,8.27
2019-04-20T17:23:06.961Z,7.83
2019-04-20T17:25:35.688Z,5.10
2019-04-20T17:28:07.218Z,7.13
2019-04-20T17:30:55.169Z,5.53
2019-04-20T17:33:27.977Z,6.67
2019-04-20T17:36:08.463Z,8.07
2019-04-20T17:38:34.756Z,6.57
2019-04-20T17:41:18.172Z,7.15
2019-04-20T17:43:49.447Z,6.03
2019-04-20T17:46:12.091Z,9.47
2019-04-20T17:48:46.951Z,11.87
2019-04-20T17:51:30.344Z,7.43
2019-04-20T17:53:49.163Z,6.23
2019-04-20T17:56:12.819Z,8.63
2019-04-20T17:58:42.197Z,14.87
2019-04-20T18:01:35.801Z,9.50
2019-04-20T18:04:31.081Z,6.73
2019-04-20T18:06:43.702Z,7.50
2019-04-20T18:09:18.444Z,7.87
2019-04-20T18:11:42.581Z,12.53
2019-04-20T18:14:28.591Z,9.20
2019-04-20T18:17:13.827Z,10.90
2019-04-20T18:19:43.075Z,9.90
2019-04-20T18:22:13.989Z,8.73
2019-04-20T18:25:09.027Z,11.57
2019-04-20T18:27:37.396Z,9.57
2019-04-20T18:30:08.136Z,15.67
2019-04-20T18:32:33.666Z,12.60
2019-04-20T18:35:08.349Z,12.20
2019-04-20T18:37:36.794Z,10.03
2019-04-20T18:40:12.423Z,10.10
2019-04-20T18:42:43.474Z,10.93
2019-04-20T18:45:28.059Z,11.17
2019-04-20T18:48:04.814Z,11.17
2019-04-20T18:50:24.448Z,14.00
2019-04-20T18:52:47.833Z,11.63
2019-04-20T18:55:23.486Z,13.70
2019-04-20T18:57:49.138Z,8.57
2019-04-20T19:00:27.984Z,8.78
2019-04-20T19:02:56.106Z,9.87
2019-04-20T19:05:26.034Z,9.60
2019-04-20T19:07:59.981Z,12.33
2019-04-20T19:10:31.354Z,12.03
2019-04-20T19:13:08.102Z,12.87
2019-04-20T19:16:08.170Z,10.30
2019-04-20T19:18:44.451Z,11.90
2019-04-20T19:21:03.737Z,12.10
2019-04-20T19:23:59.873Z,10.90
2019-04-20T19:26:25.117Z,9.63
2019-04-20T19:28:59.404Z,10.73
2019-04-20T19:31:42.327Z,12.10
2019-04-20T19:34:15.188Z,7.03
2019-04-20T19:36:34.910Z,13.07
2019-04-20T19:39:17.322Z,7.57
2019-04-20T19:41:42.254Z,6.90
2019-04-20T19:44:14.780Z,10.30
2019-04-20T19:46:55.068Z,8.37
2019-04-20T19:49:19.637Z,9.70
2019-04-20T19:52:02.902Z,11.77
2019-04-20T19:54:30.248Z,6.83
2019-04-20T19:56:55.511Z,11.73
2019-04-20T19:59:32.792Z,10.30
2019-04-20T20:01:53.833Z,8.10
2019-04-20T20:04:23.887Z,8.50
2019-04-20T20:07:01.302Z,10.03
2019-04-20T20:09:25.904Z,9.53
2019-04-20T20:12:02.638Z,12.57
2019-04-20T20:14:34.295Z,11.93
2019-04-20T20:17:13.826Z,7.37
2019-04-20T20:19:46.166Z,9.43
2019-04-20T20:22:12.820Z,12.27
2019-04-20T20:24:31.604Z,7.53
2019-04-20T20:27:06.217Z,8.53
2019-04-20T20:29:38.376Z,7.50
2019-04-20T20:32:15.599Z,10.33
2019-04-20T20:34:40.511Z,7.77
2019-04-20T20:37:11.115Z,8.70
2019-04-20T20:39:40.391Z,9.17
2019-04-20T20:42:19.043Z,7.90
2019-04-20T20:44:50.600Z,7.40
2019-04-20T20:47:37.271Z,7.40
2019-04-20T20:50:11.307Z,11.63
2019-04-20T20:52:32.457Z,12.10
2019-04-20T20:54:56.324Z,6.60
2019-04-20T20:57:23.925Z,6.07
2019-04-20T20:59:55.256Z,9.10
2019-04-20T21:02:24.487Z,7.17
2019-04-20T21:04:51.432Z,6.97
2019-04-20T21:07:20.978Z,6.77
2019-04-20T21:09:50.534Z,9.20
2019-04-20T21:12:21.774Z,6.23
2019-04-20T21:14:51.101Z,8.17
2019-04-20T21:17:24.275Z,7.40
2019-04-20T21:20:06.394Z,7.73
2019-04-20T21:22:45.026Z,6.77
2019-04-20T21:25:05.387Z,9.33
2019-04-20T21:27:34.994Z,8.47
2019-04-20T21:30:17.238Z,9.90
2019-04-20T21:32:43.463Z,7.90
2019-04-20T21:35:12.829Z,8.40
2019-04-20T21:37:47.046Z,8.37
2019-04-20T21:40:23.249Z,13.67
2019-04-20T21:42:51.714Z,7.60
2019-04-20T21:45:20.036Z,8.60
2019-04-20T21:47:47.034Z,7.73
2019-04-20T21:50:31.221Z,11.60
2019-04-20T21:52:51.979Z,7.43
2019-04-20T21:55:19.763Z,10.97
2019-04-20T21:57:53.906Z,8.37
2019-04-20T22:00:44.572Z,9.13
2019-04-20T22:03:11.885Z,10.13
2019-04-20T22:05:42.331Z,8.43
2019-04-20T22:08:15.887Z,6.90
2019-04-20T22:10:43.191Z,11.70
2019-04-20T22:13:14.025Z,9.10
2019-04-20T22:15:51.849Z,9.77
2019-04-20T22:18:20.105Z,8.87
2019-04-20T22:21:01.992Z,9.30
2019-04-20T22:23:36.612Z,7.70
2019-04-20T22:26:03.946Z,7.87
2019-04-20T22:28:20.352Z,8.93
2019-04-20T22:30:50.419Z,9.23
2019-04-20T22:33:29.850Z,8.57
2019-04-20T22:35:59.504Z,9.63
2019-04-20T22:38:28.862Z,8.17
2019-04-20T22:41:05.623Z,8.93
2019-04-20T22:43:33.692Z,8.23
2019-04-20T22:46:01.276Z,12.85
2019-04-20T22:48:31.337Z,10.67
2019-04-20T22:51:19.571Z,7.90
2019-04-20T22:53:44.194Z,10.57
2019-04-20T22:56:24.420Z,10.53
2019-04-20T22:58:43.253Z,12.60
2019-04-20T23:01:19.425Z,9.80
2019-04-20T23:03:37.685Z,10.60
2019-04-20T23:06:09.015Z,8.20
2019-04-20T23:08:38.466Z,9.33
2019-04-20T23:11:14.817Z,7.57
2019-04-20T23:13:42.899Z,9.60
2019-04-20T23:16:11.511Z,9.43
2019-04-20T23:18:42.161Z,9.00
2019-04-20T23:21:15.419Z,7.23
2019-04-20T23:23:43.686Z,8.67
2019-04-20T23:26:16.903Z,9.53
2019-04-20T23:28:48.297Z,12.07
2019-04-20T23:31:20.133Z,8.27
2019-04-20T23:33:47.765Z,9.80
2019-04-20T23:36:19.311Z,8.83
2019-04-20T23:38:52.684Z,9.90
2019-04-20T23:41:19.700Z,13.00
2019-04-20T23:44:03.873Z,9.63
2019-04-20T23:46:45.383Z,12.07
2019-04-20T23:49:37.645Z,11.17
2019-04-20T23:52:26.691Z,9.67
2019-04-20T23:54:35.076Z,10.60
2019-04-20T23:57:01.891Z,9.13
2019-04-20T23:59:37.540Z,9.33
